sensor_id;sensor_type;location;lat;lon;timestamp;pressure;altitude;pressure_sealevel;temperature;humidity
76126;BME280;65174;48.138;21.002;2022-11-15T00:03:09;99952.63;;;2.71;94.89
76126;BME280;65174;48.138;21.002;2022-11-15T00:06:30;99942.94;;;2.50;94.04
76126;BME280;65174;48.138;21.002;2022-11-15T00:09:50;99937.53;;;2.26;95.52
76126;BME280;65174;48.138;21.002;2022-11-15T00:13:12;99939.13;;;2.32;94.68
76126;BME280;65174;48.138;21.002;2022-11-15T00:16:32;99935.31;;;2.50;95.38
76126;BME280;65174;48.138;21.002;2022-11-15T00:19:53;99937.44;;;2.68;95.28
76126;BME280;65174;48.138;21.002;2022-11-15T00:23:13;99927.41;;;2.62;94.92
76126;BME280;65174;48.138;21.002;2022-11-15T00:26:34;99923.34;;;2.53;94.41
76126;BME280;65174;48.138;21.002;2022-11-15T00:29:54;99921.88;;;2.45;94.13
76126;BME280;65174;48.138;21.002;2022-11-15T00:33:16;99922.63;;;2.48;94.27
76126;BME280;65174;48.138;21.002;2022-11-15T00:36:36;99919.53;;;2.35;93.79
76126;BME280;65174;48.138;21.002;2022-11-15T00:39:57;99920.63;;;2.25;93.79
76126;BME280;65174;48.138;21.002;2022-11-15T00:43:17;99912.22;;;2.22;94.57
76126;BME280;65174;48.138;21.002;2022-11-15T00:46:38;99911.47;;;2.17;94.85
76126;BME280;65174;48.138;21.002;2022-11-15T00:49:58;99899.69;;;2.13;95.30
76126;BME280;65174;48.138;21.002;2022-11-15T00:53:19;99904.03;;;2.08;94.66
76126;BME280;65174;48.138;21.002;2022-11-15T00:56:39;99899.75;;;2.10;95.44
76126;BME280;65174;48.138;21.002;2022-11-15T00:59:59;99899.56;;;2.19;96.10
76126;BME280;65174;48.138;21.002;2022-11-15T01:03:20;99892.81;;;2.16;96.76
76126;BME280;65174;48.138;21.002;2022-11-15T01:06:41;99886.97;;;2.13;96.20
76126;BME280;65174;48.138;21.002;2022-11-15T01:10:04;99890.31;;;2.15;96.34
76126;BME280;65174;48.138;21.002;2022-11-15T01:13:25;99889.81;;;2.01;96.13
76126;BME280;65174;48.138;21.002;2022-11-15T01:16:45;99877.13;;;1.98;96.32
76126;BME280;65174;48.138;21.002;2022-11-15T01:20:05;99867.94;;;1.92;95.71
76126;BME280;65174;48.138;21.002;2022-11-15T01:23:26;99871.53;;;1.84;96.38
76126;BME280;65174;48.138;21.002;2022-11-15T01:26:47;99862.94;;;1.88;96.26
76126;BME280;65174;48.138;21.002;2022-11-15T01:30:08;99862.19;;;1.84;95.86
76126;BME280;65174;48.138;21.002;2022-11-15T01:33:29;99863.84;;;1.85;96.14
76126;BME280;65174;48.138;21.002;2022-11-15T01:36:50;99860.47;;;1.85;95.42
76126;BME280;65174;48.138;21.002;2022-11-15T01:40:10;99853.63;;;1.87;95.59
76126;BME280;65174;48.138;21.002;2022-11-15T01:43:34;99856.88;;;1.93;95.86
76126;BME280;65174;48.138;21.002;2022-11-15T01:46:55;99855.97;;;1.96;95.60
76126;BME280;65174;48.138;21.002;2022-11-15T01:50:20;99851.97;;;1.86;94.89
76126;BME280;65174;48.138;21.002;2022-11-15T01:53:45;99850.22;;;1.88;95.55
76126;BME280;65174;48.138;21.002;2022-11-15T01:57:09;99840.16;;;1.83;95.25
76126;BME280;65174;48.138;21.002;2022-11-15T02:00:31;99846.81;;;1.89;94.24
76126;BME280;65174;48.138;21.002;2022-11-15T02:03:56;99843.47;;;1.87;95.03
76126;BME280;65174;48.138;21.002;2022-11-15T02:07:20;99843.22;;;1.97;94.14
76126;BME280;65174;48.138;21.002;2022-11-15T02:10:42;99853.56;;;1.90;93.76
76126;BME280;65174;48.138;21.002;2022-11-15T02:14:03;99856.97;;;1.90;94.61
76126;BME280;65174;48.138;21.002;2022-11-15T02:17:46;99846.22;;;1.76;94.83
76126;BME280;65174;48.138;21.002;2022-11-15T02:21:13;99847.22;;;1.71;94.97
76126;BME280;65174;48.138;21.002;2022-11-15T02:25:01;99843.16;;;1.62;95.44
76126;BME280;65174;48.138;21.002;2022-11-15T02:28:41;99839.13;;;1.53;95.72
76126;BME280;65174;48.138;21.002;2022-11-15T02:43:08;99840.03;;;1.49;96.44
76126;BME280;65174;48.138;21.002;2022-11-15T02:46:52;99819.84;;;1.43;96.27
76126;BME280;65174;48.138;21.002;2022-11-15T02:50:34;99825.69;;;1.48;95.75
76126;BME280;65174;48.138;21.002;2022-11-15T02:53:55;99823.31;;;1.39;95.51
76126;BME280;65174;48.138;21.002;2022-11-15T02:57:17;99825.69;;;1.47;95.09
76126;BME280;65174;48.138;21.002;2022-11-15T03:01:13;99818.63;;;1.61;95.01
76126;BME280;65174;48.138;21.002;2022-11-15T03:08:29;99829.13;;;1.84;93.96
76126;BME280;65174;48.138;21.002;2022-11-15T03:12:14;99823.16;;;1.85;93.65
76126;BME280;65174;48.138;21.002;2022-11-15T03:15:46;99812.84;;;1.91;93.18
76126;BME280;65174;48.138;21.002;2022-11-15T03:23:17;99816.03;;;1.63;92.42
76126;BME280;65174;48.138;21.002;2022-11-15T03:26:39;99816.31;;;1.49;93.28
76126;BME280;65174;48.138;21.002;2022-11-15T03:30:05;99807.75;;;1.53;92.90
76126;BME280;65174;48.138;21.002;2022-11-15T03:33:27;99804.25;;;1.58;93.01
76126;BME280;65174;48.138;21.002;2022-11-15T03:36:50;99810.38;;;1.50;92.26
76126;BME280;65174;48.138;21.002;2022-11-15T03:40:45;99804.72;;;1.37;92.74
76126;BME280;65174;48.138;21.002;2022-11-15T03:47:41;99801.88;;;1.51;92.78
76126;BME280;65174;48.138;21.002;2022-11-15T03:51:04;99810.06;;;1.63;92.38
76126;BME280;65174;48.138;21.002;2022-11-15T03:54:25;99800.84;;;1.59;91.88
76126;BME280;65174;48.138;21.002;2022-11-15T03:57:47;99801.59;;;1.65;92.52
76126;BME280;65174;48.138;21.002;2022-11-15T04:01:08;99799.00;;;1.68;91.69
76126;BME280;65174;48.138;21.002;2022-11-15T04:04:29;99799.66;;;1.76;91.33
76126;BME280;65174;48.138;21.002;2022-11-15T04:07:49;99800.44;;;1.78;91.74
76126;BME280;65174;48.138;21.002;2022-11-15T04:11:09;99792.28;;;1.63;92.18
76126;BME280;65174;48.138;21.002;2022-11-15T04:14:30;99785.25;;;1.36;93.03
76126;BME280;65174;48.138;21.002;2022-11-15T04:17:53;99786.28;;;1.28;93.47
76126;BME280;65174;48.138;21.002;2022-11-15T04:21:13;99778.88;;;1.19;93.75
76126;BME280;65174;48.138;21.002;2022-11-15T04:24:53;99779.00;;;1.13;93.84
76126;BME280;65174;48.138;21.002;2022-11-15T04:28:13;99780.63;;;1.15;94.25
76126;BME280;65174;48.138;21.002;2022-11-15T04:31:33;99775.44;;;1.20;93.59
76126;BME280;65174;48.138;21.002;2022-11-15T04:34:53;99756.28;;;1.05;93.68
76126;BME280;65174;48.138;21.002;2022-11-15T04:38:14;99765.44;;;1.12;95.06
76126;BME280;65174;48.138;21.002;2022-11-15T04:41:34;99763.75;;;1.11;94.29
76126;BME280;65174;48.138;21.002;2022-11-15T04:44:55;99770.66;;;1.06;94.80
76126;BME280;65174;48.138;21.002;2022-11-15T04:48:16;99766.22;;;1.16;94.90
76126;BME280;65174;48.138;21.002;2022-11-15T04:51:36;99768.84;;;1.13;95.58
76126;BME280;65174;48.138;21.002;2022-11-15T04:54:56;99764.56;;;1.13;95.09
76126;BME280;65174;48.138;21.002;2022-11-15T04:58:16;99763.34;;;0.91;95.41
76126;BME280;65174;48.138;21.002;2022-11-15T05:01:37;99758.75;;;1.08;95.85
76126;BME280;65174;48.138;21.002;2022-11-15T05:05:04;99760.84;;;1.29;94.79
76126;BME280;65174;48.138;21.002;2022-11-15T05:08:25;99749.31;;;1.13;94.47
76126;BME280;65174;48.138;21.002;2022-11-15T05:11:45;99744.41;;;1.06;94.33
76126;BME280;65174;48.138;21.002;2022-11-15T05:15:06;99743.44;;;1.13;94.95
76126;BME280;65174;48.138;21.002;2022-11-15T05:27:16;99756.38;;;1.77;94.31
76126;BME280;65174;48.138;21.002;2022-11-15T05:31:20;99756.97;;;1.88;94.15
76126;BME280;65174;48.138;21.002;2022-11-15T05:34:41;99749.34;;;1.87;93.01
76126;BME280;65174;48.138;21.002;2022-11-15T05:38:01;99742.50;;;1.90;92.13
76126;BME280;65174;48.138;21.002;2022-11-15T05:41:29;99748.81;;;2.08;92.40
76126;BME280;65174;48.138;21.002;2022-11-15T05:44:51;99753.22;;;2.01;92.48
76126;BME280;65174;48.138;21.002;2022-11-15T05:48:12;99763.81;;;2.18;92.90
76126;BME280;65174;48.138;21.002;2022-11-15T05:51:32;99762.13;;;2.19;92.43
76126;BME280;65174;48.138;21.002;2022-11-15T05:54:55;99754.28;;;2.26;92.35
76126;BME280;65174;48.138;21.002;2022-11-15T05:58:17;99739.63;;;2.02;93.46
76126;BME280;65174;48.138;21.002;2022-11-15T06:10:09;99753.66;;;2.51;92.38
76126;BME280;65174;48.138;21.002;2022-11-15T06:13:29;99744.44;;;2.47;92.89
76126;BME280;65174;48.138;21.002;2022-11-15T06:16:50;99752.53;;;2.61;92.39
76126;BME280;65174;48.138;21.002;2022-11-15T06:20:11;99737.69;;;2.75;92.55
76126;BME280;65174;48.138;21.002;2022-11-15T06:23:33;99729.44;;;2.67;92.52
76126;BME280;65174;48.138;21.002;2022-11-15T06:26:54;99726.06;;;2.66;93.36
76126;BME280;65174;48.138;21.002;2022-11-15T06:30:14;99719.25;;;2.67;93.81
76126;BME280;65174;48.138;21.002;2022-11-15T06:33:35;99710.16;;;2.58;94.40
76126;BME280;65174;48.138;21.002;2022-11-15T06:36:55;99710.13;;;2.60;94.17
76126;BME280;65174;48.138;21.002;2022-11-15T06:40:15;99724.16;;;2.73;94.08
76126;BME280;65174;48.138;21.002;2022-11-15T06:43:36;99726.53;;;2.80;94.51
76126;BME280;65174;48.138;21.002;2022-11-15T06:46:57;99717.53;;;2.67;94.08
76126;BME280;65174;48.138;21.002;2022-11-15T06:50:17;99731.69;;;2.77;94.38
76126;BME280;65174;48.138;21.002;2022-11-15T06:53:38;99739.16;;;3.12;93.74
76126;BME280;65174;48.138;21.002;2022-11-15T06:56:58;99732.69;;;3.30;93.68
76126;BME280;65174;48.138;21.002;2022-11-15T07:00:20;99732.13;;;3.48;92.35
76126;BME280;65174;48.138;21.002;2022-11-15T07:03:42;99728.72;;;3.49;91.51
76126;BME280;65174;48.138;21.002;2022-11-15T07:07:03;99736.56;;;3.42;91.52
76126;BME280;65174;48.138;21.002;2022-11-15T07:10:24;99736.81;;;3.34;91.41
76126;BME280;65174;48.138;21.002;2022-11-15T07:13:46;99735.44;;;3.24;90.94
76126;BME280;65174;48.138;21.002;2022-11-15T07:17:06;99731.53;;;2.83;93.35
76126;BME280;65174;48.138;21.002;2022-11-15T07:20:26;99732.19;;;3.19;93.33
76126;BME280;65174;48.138;21.002;2022-11-15T07:23:47;99730.66;;;3.41;93.02
76126;BME280;65174;48.138;21.002;2022-11-15T07:27:08;99743.38;;;3.69;93.05
76126;BME280;65174;48.138;21.002;2022-11-15T07:30:29;99745.44;;;3.84;92.67
76126;BME280;65174;48.138;21.002;2022-11-15T07:33:49;99761.53;;;3.87;91.56
76126;BME280;65174;48.138;21.002;2022-11-15T07:37:10;99748.16;;;3.79;90.86
76126;BME280;65174;48.138;21.002;2022-11-15T07:40:31;99749.91;;;3.77;91.03
76126;BME280;65174;48.138;21.002;2022-11-15T07:43:52;99749.97;;;3.76;91.26
76126;BME280;65174;48.138;21.002;2022-11-15T07:47:13;99751.19;;;3.64;91.24
76126;BME280;65174;48.138;21.002;2022-11-15T07:50:33;99760.78;;;3.56;91.42
76126;BME280;65174;48.138;21.002;2022-11-15T07:53:54;99755.78;;;3.53;92.01
76126;BME280;65174;48.138;21.002;2022-11-15T07:57:15;99755.94;;;3.49;92.10
76126;BME280;65174;48.138;21.002;2022-11-15T08:00:36;99750.16;;;3.42;91.74
76126;BME280;65174;48.138;21.002;2022-11-15T08:03:58;99740.09;;;3.38;92.72
76126;BME280;65174;48.138;21.002;2022-11-15T08:07:18;99728.00;;;3.16;92.67
76126;BME280;65174;48.138;21.002;2022-11-15T08:10:40;99713.31;;;2.95;93.86
76126;BME280;65174;48.138;21.002;2022-11-15T08:14:01;99707.19;;;3.02;94.55
76126;BME280;65174;48.138;21.002;2022-11-15T08:17:22;99704.00;;;3.23;95.07
76126;BME280;65174;48.138;21.002;2022-11-15T08:20:46;99686.00;;;3.56;95.08
76126;BME280;65174;48.138;21.002;2022-11-15T08:24:09;99696.09;;;3.85;94.44
76126;BME280;65174;48.138;21.002;2022-11-15T08:27:30;99713.19;;;4.08;92.98
76126;BME280;65174;48.138;21.002;2022-11-15T08:30:52;99712.13;;;4.15;92.75
76126;BME280;65174;48.138;21.002;2022-11-15T08:34:13;99689.09;;;4.16;93.84
76126;BME280;65174;48.138;21.002;2022-11-15T08:37:33;99705.34;;;4.14;93.15
76126;BME280;65174;48.138;21.002;2022-11-15T08:41:03;99703.47;;;4.19;93.37
76126;BME280;65174;48.138;21.002;2022-11-15T08:44:23;99718.31;;;4.32;92.00
76126;BME280;65174;48.138;21.002;2022-11-15T08:47:44;99713.53;;;4.71;92.67
76126;BME280;65174;48.138;21.002;2022-11-15T08:51:12;99707.13;;;4.82;91.81
76126;BME280;65174;48.138;21.002;2022-11-15T08:54:32;99718.41;;;5.00;91.56
76126;BME280;65174;48.138;21.002;2022-11-15T08:57:53;99703.63;;;5.08;90.57
76126;BME280;65174;48.138;21.002;2022-11-15T09:01:17;99705.56;;;5.02;90.37
76126;BME280;65174;48.138;21.002;2022-11-15T09:04:40;99703.34;;;4.93;90.17
76126;BME280;65174;48.138;21.002;2022-11-15T09:08:01;99694.91;;;4.91;90.55
76126;BME280;65174;48.138;21.002;2022-11-15T09:11:44;99693.06;;;5.17;90.30
76126;BME280;65174;48.138;21.002;2022-11-15T09:15:12;99690.03;;;5.29;89.49
76126;BME280;65174;48.138;21.002;2022-11-15T09:18:34;99696.19;;;5.45;88.88
76126;BME280;65174;48.138;21.002;2022-11-15T09:21:54;99700.91;;;5.56;89.65
76126;BME280;65174;48.138;21.002;2022-11-15T09:25:15;99696.31;;;5.64;89.17
76126;BME280;65174;48.138;21.002;2022-11-15T09:28:36;99692.78;;;5.67;90.07
76126;BME280;65174;48.138;21.002;2022-11-15T09:31:56;99683.91;;;5.55;88.93
76126;BME280;65174;48.138;21.002;2022-11-15T09:35:17;99666.72;;;5.15;89.89
76126;BME280;65174;48.138;21.002;2022-11-15T09:38:37;99663.72;;;5.26;89.15
76126;BME280;65174;48.138;21.002;2022-11-15T09:42:08;99635.28;;;5.12;89.52
76126;BME280;65174;48.138;21.002;2022-11-15T09:49:22;99623.00;;;5.21;90.73
76126;BME280;65174;48.138;21.002;2022-11-15T09:52:50;99603.06;;;5.08;90.66
76126;BME280;65174;48.138;21.002;2022-11-15T09:56:04;99619.19;;;5.10;89.51
76126;BME280;65174;48.138;21.002;2022-11-15T10:03:11;99605.13;;;5.20;91.36
76126;BME280;65174;48.138;21.002;2022-11-15T10:06:26;99590.97;;;5.11;90.35
76126;BME280;65174;48.138;21.002;2022-11-15T10:09:52;99580.75;;;5.11;91.93
76126;BME280;65174;48.138;21.002;2022-11-15T10:12:55;99583.81;;;4.99;91.30
76126;BME280;65174;48.138;21.002;2022-11-15T10:16:16;99591.38;;;5.02;91.04
76126;BME280;65174;48.138;21.002;2022-11-15T10:22:50;99590.22;;;5.09;92.25
76126;BME280;65174;48.138;21.002;2022-11-15T10:25:58;99585.94;;;5.10;92.17
76126;BME280;65174;48.138;21.002;2022-11-15T10:29:07;99587.78;;;5.06;91.80
76126;BME280;65174;48.138;21.002;2022-11-15T10:32:12;99572.78;;;5.19;91.44
76126;BME280;65174;48.138;21.002;2022-11-15T10:35:25;99592.72;;;5.52;91.38
76126;BME280;65174;48.138;21.002;2022-11-15T10:38:27;99575.00;;;5.68;89.23
76126;BME280;65174;48.138;21.002;2022-11-15T10:41:32;99579.84;;;5.74;88.09
76126;BME280;65174;48.138;21.002;2022-11-15T10:44:42;99593.00;;;5.87;88.05
76126;BME280;65174;48.138;21.002;2022-11-15T10:47:45;99586.47;;;6.00;89.13
76126;BME280;65174;48.138;21.002;2022-11-15T10:50:49;99592.03;;;6.09;89.44
76126;BME280;65174;48.138;21.002;2022-11-15T10:53:52;99576.41;;;6.15;88.24
76126;BME280;65174;48.138;21.002;2022-11-15T10:56:56;99581.03;;;6.07;87.77
76126;BME280;65174;48.138;21.002;2022-11-15T11:00:13;99582.47;;;6.13;89.94
76126;BME280;65174;48.138;21.002;2022-11-15T11:03:34;99587.44;;;6.16;89.73
76126;BME280;65174;48.138;21.002;2022-11-15T11:10:19;99560.94;;;6.17;88.69
76126;BME280;65174;48.138;21.002;2022-11-15T11:13:41;99542.06;;;6.01;89.45
76126;BME280;65174;48.138;21.002;2022-11-15T11:27:29;99507.28;;;6.14;88.66
76126;BME280;65174;48.138;21.002;2022-11-15T11:48:14;99500.91;;;6.41;86.54
76126;BME280;65174;48.138;21.002;2022-11-15T11:51:24;99499.91;;;6.62;85.32
76126;BME280;65174;48.138;21.002;2022-11-15T11:54:45;99489.25;;;6.71;85.47
76126;BME280;65174;48.138;21.002;2022-11-15T12:01:18;99469.88;;;7.17;83.24
76126;BME280;65174;48.138;21.002;2022-11-15T12:04:32;99473.91;;;7.05;83.23
76126;BME280;65174;48.138;21.002;2022-11-15T12:07:39;99472.53;;;7.15;83.06
76126;BME280;65174;48.138;21.002;2022-11-15T12:10:47;99464.06;;;6.96;83.72
76126;BME280;65174;48.138;21.002;2022-11-15T12:13:59;99467.78;;;6.91;83.98
76126;BME280;65174;48.138;21.002;2022-11-15T12:17:03;99462.81;;;7.05;83.97
76126;BME280;65174;48.138;21.002;2022-11-15T12:20:24;99456.97;;;7.18;84.90
76126;BME280;65174;48.138;21.002;2022-11-15T12:23:32;99455.41;;;7.16;85.62
76126;BME280;65174;48.138;21.002;2022-11-15T12:26:45;99447.09;;;7.11;85.22
76126;BME280;65174;48.138;21.002;2022-11-15T12:29:54;99433.38;;;6.95;86.42
76126;BME280;65174;48.138;21.002;2022-11-15T12:32:59;99436.63;;;7.15;86.29
76126;BME280;65174;48.138;21.002;2022-11-15T12:36:30;99433.88;;;7.18;86.43
76126;BME280;65174;48.138;21.002;2022-11-15T12:52:33;99429.59;;;7.19;86.53
76126;BME280;65174;48.138;21.002;2022-11-15T12:55:35;99421.44;;;7.11;86.80
76126;BME280;65174;48.138;21.002;2022-11-15T12:58:53;99428.94;;;7.15;86.70
76126;BME280;65174;48.138;21.002;2022-11-15T13:01:57;99422.81;;;7.18;86.07
76126;BME280;65174;48.138;21.002;2022-11-15T13:08:40;99425.53;;;7.15;85.95
76126;BME280;65174;48.138;21.002;2022-11-15T13:11:48;99418.25;;;7.23;86.39
76126;BME280;65174;48.138;21.002;2022-11-15T13:14:52;99417.72;;;7.34;86.13
76126;BME280;65174;48.138;21.002;2022-11-15T13:17:56;99414.09;;;7.38;86.55
76126;BME280;65174;48.138;21.002;2022-11-15T13:20:58;99413.41;;;7.34;85.99
76126;BME280;65174;48.138;21.002;2022-11-15T13:24:04;99397.50;;;7.28;85.88
76126;BME280;65174;48.138;21.002;2022-11-15T13:27:18;99399.19;;;7.29;86.07
76126;BME280;65174;48.138;21.002;2022-11-15T13:30:23;99401.56;;;7.32;86.02
76126;BME280;65174;48.138;21.002;2022-11-15T13:33:34;99388.22;;;7.25;87.11
76126;BME280;65174;48.138;21.002;2022-11-15T13:36:37;99383.53;;;7.00;87.71
76126;BME280;65174;48.138;21.002;2022-11-15T13:39:39;99393.25;;;7.11;86.99
76126;BME280;65174;48.138;21.002;2022-11-15T13:42:41;99382.88;;;7.12;87.11
76126;BME280;65174;48.138;21.002;2022-11-15T13:46:22;99390.97;;;7.22;87.59
76126;BME280;65174;48.138;21.002;2022-11-15T13:49:29;99388.72;;;7.16;87.85
76126;BME280;65174;48.138;21.002;2022-11-15T13:52:35;99391.50;;;7.11;87.72
76126;BME280;65174;48.138;21.002;2022-11-15T13:55:42;99384.13;;;7.05;87.84
76126;BME280;65174;48.138;21.002;2022-11-15T13:58:45;99389.25;;;7.05;88.02
76126;BME280;65174;48.138;21.002;2022-11-15T14:01:49;99390.81;;;7.08;88.49
76126;BME280;65174;48.138;21.002;2022-11-15T14:05:14;99395.19;;;7.06;88.67
76126;BME280;65174;48.138;21.002;2022-11-15T14:08:41;99390.16;;;7.04;88.91
76126;BME280;65174;48.138;21.002;2022-11-15T14:12:32;99381.66;;;6.87;88.86
76126;BME280;65174;48.138;21.002;2022-11-15T14:15:54;99365.06;;;6.77;89.03
76126;BME280;65174;48.138;21.002;2022-11-15T14:22:51;99358.94;;;6.79;88.85
76126;BME280;65174;48.138;21.002;2022-11-15T14:26:31;99356.38;;;6.62;89.69
76126;BME280;65174;48.138;21.002;2022-11-15T14:29:54;99349.63;;;6.61;90.14
76126;BME280;65174;48.138;21.002;2022-11-15T14:33:20;99328.81;;;6.50;91.41
76126;BME280;65174;48.138;21.002;2022-11-15T14:36:43;99310.06;;;6.32;91.85
76126;BME280;65174;48.138;21.002;2022-11-15T14:40:06;99295.03;;;6.25;92.62
76126;BME280;65174;48.138;21.002;2022-11-15T14:43:27;99291.34;;;6.30;93.11
76126;BME280;65174;48.138;21.002;2022-11-15T14:46:49;99276.22;;;6.26;93.40
76126;BME280;65174;48.138;21.002;2022-11-15T14:49:51;99264.38;;;6.23;93.54
76126;BME280;65174;48.138;21.002;2022-11-15T14:53:16;99270.25;;;6.25;93.16
76126;BME280;65174;48.138;21.002;2022-11-15T14:57:17;99269.72;;;6.19;92.79
76126;BME280;65174;48.138;21.002;2022-11-15T15:00:59;99262.13;;;6.17;93.21
76126;BME280;65174;48.138;21.002;2022-11-15T15:04:20;99262.94;;;6.18;92.50
76126;BME280;65174;48.138;21.002;2022-11-15T15:07:22;99272.97;;;6.22;92.34
76126;BME280;65174;48.138;21.002;2022-11-15T15:10:42;99290.69;;;6.27;92.68
76126;BME280;65174;48.138;21.002;2022-11-15T15:13:44;99269.81;;;6.17;92.78
76126;BME280;65174;48.138;21.002;2022-11-15T15:16:46;99276.06;;;6.29;92.80
76126;BME280;65174;48.138;21.002;2022-11-15T15:19:48;99278.94;;;6.40;92.32
76126;BME280;65174;48.138;21.002;2022-11-15T15:22:50;99285.47;;;6.46;92.26
76126;BME280;65174;48.138;21.002;2022-11-15T15:25:52;99276.81;;;6.31;92.80
76126;BME280;65174;48.138;21.002;2022-11-15T15:28:54;99279.00;;;6.21;92.99
76126;BME280;65174;48.138;21.002;2022-11-15T15:31:56;99291.06;;;6.36;92.79
76126;BME280;65174;48.138;21.002;2022-11-15T15:34:58;99280.44;;;6.44;91.95
76126;BME280;65174;48.138;21.002;2022-11-15T15:38:01;99291.28;;;6.49;92.30
76126;BME280;65174;48.138;21.002;2022-11-15T15:41:03;99287.06;;;6.48;92.19
76126;BME280;65174;48.138;21.002;2022-11-15T15:44:05;99288.47;;;6.54;91.92
76126;BME280;65174;48.138;21.002;2022-11-15T15:47:17;99284.28;;;6.53;91.71
76126;BME280;65174;48.138;21.002;2022-11-15T15:50:55;99289.19;;;6.40;92.60
76126;BME280;65174;48.138;21.002;2022-11-15T15:53:50;99274.47;;;6.43;92.45
76126;BME280;65174;48.138;21.002;2022-11-15T15:56:55;99265.50;;;6.35;92.61
76126;BME280;65174;48.138;21.002;2022-11-15T16:00:17;99261.00;;;6.23;93.15
76126;BME280;65174;48.138;21.002;2022-11-15T16:04:19;99250.97;;;6.18;93.59
76126;BME280;65174;48.138;21.002;2022-11-15T16:08:21;99240.13;;;6.13;93.92
76126;BME280;65174;48.138;21.002;2022-11-15T16:12:42;99240.72;;;6.35;93.05
76126;BME280;65174;48.138;21.002;2022-11-15T16:16:43;99248.81;;;6.28;92.10
76126;BME280;65174;48.138;21.002;2022-11-15T16:20:57;99243.38;;;6.34;92.08
76126;BME280;65174;48.138;21.002;2022-11-15T16:24:48;99248.34;;;6.20;92.60
76126;BME280;65174;48.138;21.002;2022-11-15T16:28:14;99228.91;;;5.99;93.65
76126;BME280;65174;48.138;21.002;2022-11-15T16:32:13;99230.84;;;5.94;93.77
76126;BME280;65174;48.138;21.002;2022-11-15T16:36:21;99214.28;;;5.84;93.99
76126;BME280;65174;48.138;21.002;2022-11-15T16:40:24;99218.34;;;5.88;94.04
76126;BME280;65174;48.138;21.002;2022-11-15T16:44:24;99211.66;;;5.85;94.30
76126;BME280;65174;48.138;21.002;2022-11-15T16:48:26;99212.56;;;5.84;94.28
76126;BME280;65174;48.138;21.002;2022-11-15T16:52:27;99208.13;;;5.88;94.28
76126;BME280;65174;48.138;21.002;2022-11-15T16:56:38;99209.84;;;5.87;94.39
76126;BME280;65174;48.138;21.002;2022-11-15T17:00:39;99207.38;;;5.86;94.76
76126;BME280;65174;48.138;21.002;2022-11-15T18:21:45;99153.28;;;6.09;93.88
76126;BME280;65174;48.138;21.002;2022-11-15T18:24:57;99150.53;;;5.96;94.05
76126;BME280;65174;48.138;21.002;2022-11-15T18:27:59;99153.59;;;6.03;94.18
76126;BME280;65174;48.138;21.002;2022-11-15T18:31:14;99148.03;;;5.95;94.42
76126;BME280;65174;48.138;21.002;2022-11-15T18:34:17;99153.66;;;6.01;93.85
76126;BME280;65174;48.138;21.002;2022-11-15T18:37:19;99150.13;;;6.04;93.56
76126;BME280;65174;48.138;21.002;2022-11-15T18:40:21;99139.34;;;5.97;93.48
76126;BME280;65174;48.138;21.002;2022-11-15T18:43:24;99141.41;;;5.91;93.66
76126;BME280;65174;48.138;21.002;2022-11-15T18:46:28;99138.84;;;5.91;93.66
76126;BME280;65174;48.138;21.002;2022-11-15T18:49:33;99137.28;;;5.88;93.78
76126;BME280;65174;48.138;21.002;2022-11-15T18:52:35;99138.09;;;5.89;93.63
76126;BME280;65174;48.138;21.002;2022-11-15T18:55:41;99140.81;;;5.86;93.84
76126;BME280;65174;48.138;21.002;2022-11-15T18:58:46;99136.34;;;5.89;93.48
76126;BME280;65174;48.138;21.002;2022-11-15T19:01:48;99135.38;;;5.92;93.56
76126;BME280;65174;48.138;21.002;2022-11-15T19:04:52;99127.94;;;5.87;93.61
76126;BME280;65174;48.138;21.002;2022-11-15T19:07:54;99121.91;;;5.88;93.50
76126;BME280;65174;48.138;21.002;2022-11-15T19:11:09;99122.91;;;5.86;93.22
76126;BME280;65174;48.138;21.002;2022-11-15T19:14:16;99124.16;;;5.94;92.96
76126;BME280;65174;48.138;21.002;2022-11-15T19:17:18;99125.06;;;5.93;93.09
76126;BME280;65174;48.138;21.002;2022-11-15T19:20:21;99129.97;;;5.98;93.12
76126;BME280;65174;48.138;21.002;2022-11-15T19:23:24;99145.94;;;6.03;93.34
76126;BME280;65174;48.138;21.002;2022-11-15T19:26:28;99144.88;;;6.07;92.84
76126;BME280;65174;48.138;21.002;2022-11-15T19:29:30;99132.38;;;6.01;92.88
76126;BME280;65174;48.138;21.002;2022-11-15T19:32:32;99123.19;;;5.97;93.37
76126;BME280;65174;48.138;21.002;2022-11-15T19:35:34;99127.25;;;6.01;93.34
76126;BME280;65174;48.138;21.002;2022-11-15T19:38:36;99131.69;;;5.97;93.64
76126;BME280;65174;48.138;21.002;2022-11-15T19:41:40;99128.22;;;5.98;93.88
76126;BME280;65174;48.138;21.002;2022-11-15T19:44:43;99123.63;;;6.05;93.43
76126;BME280;65174;48.138;21.002;2022-11-15T19:47:45;99115.53;;;6.12;92.69
76126;BME280;65174;48.138;21.002;2022-11-15T19:50:47;99105.63;;;6.06;92.53
76126;BME280;65174;48.138;21.002;2022-11-15T19:53:56;99101.66;;;6.01;92.78
76126;BME280;65174;48.138;21.002;2022-11-15T19:56:58;99099.66;;;6.06;93.21
76126;BME280;65174;48.138;21.002;2022-11-15T20:00:00;99096.53;;;6.01;93.41
76126;BME280;65174;48.138;21.002;2022-11-15T20:03:08;99097.28;;;6.03;93.34
76126;BME280;65174;48.138;21.002;2022-11-15T20:06:12;99099.31;;;5.96;93.82
76126;BME280;65174;48.138;21.002;2022-11-15T20:09:16;99095.94;;;5.96;93.96
76126;BME280;65174;48.138;21.002;2022-11-15T20:12:19;99085.91;;;5.91;94.39
76126;BME280;65174;48.138;21.002;2022-11-15T20:15:21;99087.06;;;5.86;94.37
76126;BME280;65174;48.138;21.002;2022-11-15T20:18:24;99079.38;;;5.86;94.28
76126;BME280;65174;48.138;21.002;2022-11-15T22:52:40;98899.78;;;5.93;95.31
76126;BME280;65174;48.138;21.002;2022-11-15T22:55:43;98913.50;;;5.92;95.46
76126;BME280;65174;48.138;21.002;2022-11-15T22:58:50;98914.41;;;5.91;95.63
76126;BME280;65174;48.138;21.002;2022-11-15T23:01:52;98909.38;;;5.90;95.64
76126;BME280;65174;48.138;21.002;2022-11-15T23:04:54;98916.81;;;5.94;95.40
76126;BME280;65174;48.138;21.002;2022-11-15T23:07:56;98905.22;;;5.87;95.52
76126;BME280;65174;48.138;21.002;2022-11-15T23:11:03;98901.84;;;5.87;95.77